createdAt,value
2022-09-23T00:02:26.617Z,8.48
2022-09-23T00:05:15.725Z,10.27
2022-09-23T00:08:06.125Z,7.00
2022-09-23T00:10:54.879Z,10.23
2022-09-23T00:13:46.917Z,7.75
2022-09-23T00:16:39.095Z,9.73
2022-09-23T00:19:27.499Z,8.57
2022-09-23T00:22:16.151Z,8.10
2022-09-23T00:25:07.161Z,8.95
2022-09-23T00:27:56.842Z,7.60
2022-09-23T00:30:44.959Z,8.82
2022-09-23T00:33:32.313Z,7.20
2022-09-23T00:36:19.368Z,8.18
2022-09-23T00:39:06.827Z,9.02
2022-09-23T00:41:56.352Z,6.95
2022-09-23T00:44:50.437Z,6.82
2022-09-23T00:47:45.481Z,16.92
2022-09-23T00:50:36.578Z,8.00
2022-09-23T00:53:26.857Z,10.45
2022-09-23T00:56:16.400Z,7.80
2022-09-23T00:59:05.694Z,8.88
2022-09-23T01:01:55.609Z,9.80
2022-09-23T01:04:42.792Z,7.95
2022-09-23T01:07:30.434Z,8.43
2022-09-23T01:10:19.672Z,10.20
2022-09-23T01:13:18.509Z,10.30
2022-09-23T01:16:12.742Z,11.52
2022-09-23T01:19:08.516Z,10.25
2022-09-23T01:22:01.301Z,8.70
2022-09-23T01:24:57.564Z,9.20
2022-09-23T01:27:57.974Z,12.02
2022-09-23T01:30:53.677Z,9.13
2022-09-23T01:33:51.194Z,14.50
2022-09-23T01:36:43.773Z,11.90
2022-09-23T01:39:36.466Z,9.07
2022-09-23T01:42:29.612Z,11.20
2022-09-23T01:45:21.791Z,10.98
2022-09-23T01:48:18.842Z,12.23
2022-09-23T01:51:12.498Z,10.05
2022-09-23T01:54:05.665Z,13.02
2022-09-23T01:56:59.726Z,8.98
2022-09-23T01:59:51.865Z,9.88
2022-09-23T02:02:42.150Z,10.95
2022-09-23T02:05:36.077Z,9.23
2022-09-23T02:08:27.358Z,10.95
2022-09-23T02:11:16.679Z,10.25
2022-09-23T02:14:11.308Z,12.40
2022-09-23T02:17:02.404Z,11.82
2022-09-23T02:19:54.637Z,12.60
2022-09-23T02:22:49.508Z,9.18
2022-09-23T02:25:43.839Z,10.95
2022-09-23T02:28:37.890Z,10.63
2022-09-23T02:31:34.396Z,10.55
2022-09-23T02:34:34.072Z,8.20
2022-09-23T02:37:28.898Z,10.93
2022-09-23T02:40:24.632Z,10.68
2022-09-23T02:43:17.281Z,10.85
2022-09-23T02:46:05.995Z,11.35
2022-09-23T02:48:56.922Z,8.98
2022-09-23T02:51:44.459Z,10.15
2022-09-23T02:54:33.455Z,10.45
2022-09-23T02:57:22.152Z,10.35
2022-09-23T03:00:10.073Z,11.60
2022-09-23T03:03:13.116Z,13.32
2022-09-23T03:06:06.231Z,10.48
2022-09-23T03:09:00.883Z,8.65
2022-09-23T03:11:54.642Z,11.75
2022-09-23T03:14:52.062Z,9.10
2022-09-23T03:17:46.075Z,10.10
2022-09-23T03:20:37.862Z,9.60
2022-09-23T03:23:29.984Z,10.38
2022-09-23T03:26:20.892Z,8.15
2022-09-23T03:29:11.558Z,9.80
2022-09-23T03:32:01.106Z,9.13
2022-09-23T03:34:51.362Z,7.30
2022-09-23T03:37:43.463Z,6.47
2022-09-23T03:40:34.019Z,7.13
2022-09-23T03:43:21.563Z,8.35
2022-09-23T03:46:10.480Z,7.38
2022-09-23T03:49:06.777Z,6.22
2022-09-23T03:51:53.905Z,6.30
2022-09-23T03:54:41.745Z,6.70
2022-09-23T03:57:29.347Z,8.98
2022-09-23T04:00:17.116Z,6.93
2022-09-23T04:03:07.186Z,7.07
2022-09-23T04:05:59.436Z,7.35
2022-09-23T04:08:46.386Z,5.95
2022-09-23T04:11:33.621Z,6.25
2022-09-23T04:14:21.490Z,5.95
2022-09-23T04:17:08.694Z,6.95
2022-09-23T04:19:55.738Z,10.63
2022-09-23T04:22:44.193Z,7.13
2022-09-23T04:25:32.100Z,7.90
2022-09-23T04:28:19.142Z,6.78
2022-09-23T04:31:07.405Z,10.90
2022-09-23T04:33:54.526Z,9.63
2022-09-23T04:36:41.609Z,11.52
2022-09-23T04:39:30.160Z,8.68
2022-09-23T04:42:17.128Z,9.88
2022-09-23T04:45:05.841Z,10.57
2022-09-23T04:47:52.886Z,8.13
2022-09-23T04:50:39.941Z,9.20
2022-09-23T04:53:26.729Z,7.75
2022-09-23T04:56:17.504Z,10.25
2022-09-23T04:59:05.592Z,7.82
2022-09-23T05:01:55.571Z,9.95
2022-09-23T05:04:42.943Z,9.18
2022-09-23T05:07:30.043Z,9.73
2022-09-23T05:10:17.306Z,6.70
2022-09-23T05:13:06.361Z,7.35
2022-09-23T05:15:59.837Z,7.82
2022-09-23T05:18:49.504Z,9.10
2022-09-23T05:21:37.846Z,8.30
2022-09-23T05:24:25.235Z,8.73
2022-09-23T05:27:12.595Z,22.42
2022-09-23T05:33:03.012Z,17.33
2022-09-23T05:35:50.454Z,12.60
2022-09-23T05:38:37.473Z,13.02
2022-09-23T05:41:25.377Z,12.70
2022-09-23T05:44:12.345Z,11.27
2022-09-23T05:47:00.841Z,10.63
2022-09-23T05:49:59.572Z,13.75
2022-09-23T05:52:47.975Z,10.60
2022-09-23T05:55:36.445Z,10.15
2022-09-23T05:58:23.689Z,15.50
2022-09-23T06:01:12.873Z,10.70
2022-09-23T06:04:03.127Z,12.27
2022-09-23T06:06:50.155Z,10.02
2022-09-23T06:09:37.159Z,10.20
2022-09-23T06:12:25.269Z,12.55
2022-09-23T06:15:13.247Z,13.90
2022-09-23T06:18:00.505Z,10.98
2022-09-23T06:20:48.866Z,11.05
2022-09-23T06:23:39.112Z,15.30
2022-09-23T06:26:29.339Z,11.80
2022-09-23T06:29:18.357Z,13.07
2022-09-23T06:32:05.520Z,10.00
2022-09-23T06:34:52.828Z,9.80
2022-09-23T06:37:41.428Z,9.77
2022-09-23T06:40:28.671Z,11.85
2022-09-23T06:43:15.791Z,10.70
2022-09-23T06:46:05.280Z,11.68
2022-09-23T06:48:52.558Z,10.73
2022-09-23T06:51:40.437Z,9.82
2022-09-23T06:54:29.234Z,12.30
2022-09-23T06:57:16.369Z,11.85
2022-09-23T07:00:03.655Z,10.52
2022-09-23T07:02:51.131Z,16.48
2022-09-23T07:05:39.650Z,10.05
2022-09-23T07:08:28.428Z,10.30
2022-09-23T07:11:19.501Z,13.82
2022-09-23T07:14:06.858Z,11.88
2022-09-23T07:16:54.962Z,18.60
2022-09-23T07:19:42.684Z,10.73
2022-09-23T07:22:29.875Z,12.98
2022-09-23T07:25:17.512Z,10.93
2022-09-23T07:28:07.285Z,9.35
2022-09-23T07:31:00.278Z,11.02
2022-09-23T07:33:49.432Z,18.35
2022-09-23T07:36:37.639Z,9.85
2022-09-23T07:39:24.647Z,7.28
2022-09-23T07:42:13.546Z,9.27
2022-09-23T07:45:02.967Z,8.70
2022-09-23T07:47:50.568Z,7.90
2022-09-23T07:50:39.694Z,8.05
2022-09-23T07:53:27.540Z,7.45
2022-09-23T07:56:14.611Z,7.65
2022-09-23T07:59:02.090Z,7.60
2022-09-23T08:01:52.961Z,5.13
2022-09-23T08:04:40.375Z,8.23
2022-09-23T08:07:27.288Z,9.90
2022-09-23T08:10:15.048Z,6.38
2022-09-23T08:13:03.640Z,9.93
2022-09-23T08:15:55.187Z,8.90
2022-09-23T08:18:47.610Z,6.05
2022-09-23T08:21:34.527Z,5.28
2022-09-23T08:24:24.316Z,7.43
2022-09-23T08:27:12.758Z,11.13
2022-09-23T08:29:59.685Z,4.85
2022-09-23T08:32:46.582Z,11.63
2022-09-23T08:35:34.996Z,10.65
2022-09-23T08:38:21.993Z,6.57
2022-09-23T08:41:18.504Z,4.07
2022-09-23T08:44:13.205Z,7.07
2022-09-23T08:47:22.314Z,8.07
2022-09-23T08:50:14.634Z,4.70
2022-09-23T08:53:08.104Z,5.25
2022-09-23T08:58:54.595Z,5.53
2022-09-23T09:01:46.580Z,3.10
2022-09-23T09:04:44.751Z,6.32
2022-09-23T09:07:37.088Z,2.53
2022-09-23T09:10:31.949Z,3.45
2022-09-23T09:13:32.065Z,4.85
2022-09-23T09:16:58.568Z,4.15
2022-09-23T09:19:53.871Z,4.53
2022-09-23T09:22:52.789Z,4.50
2022-09-23T09:25:45.501Z,6.10
2022-09-23T09:28:40.251Z,5.47
2022-09-23T09:31:33.863Z,6.10
2022-09-23T09:37:21.870Z,5.35
2022-09-23T09:40:12.926Z,5.05
2022-09-23T09:43:04.699Z,6.60
2022-09-23T09:46:06.139Z,5.45
2022-09-23T09:48:59.953Z,7.32
2022-09-23T09:51:48.536Z,5.63
2022-09-23T09:54:36.600Z,6.03
2022-09-23T09:57:35.203Z,4.97
2022-09-23T10:00:43.985Z,6.03
2022-09-23T10:03:38.820Z,6.28
2022-09-23T10:06:28.083Z,7.05
2022-09-23T10:09:19.391Z,6.30
2022-09-23T10:12:15.628Z,5.85
2022-09-23T10:15:02.883Z,4.25
2022-09-23T10:17:52.632Z,4.47
2022-09-23T10:20:40.154Z,4.95
2022-09-23T10:23:33.390Z,4.25
2022-09-23T10:26:30.990Z,6.07
2022-09-23T10:29:26.328Z,5.22
2022-09-23T10:32:25.795Z,7.05
2022-09-23T10:35:17.943Z,5.00
2022-09-23T10:38:05.787Z,5.22
2022-09-23T10:41:07.273Z,4.63
2022-09-23T10:44:22.619Z,6.93
2022-09-23T10:47:23.543Z,2.65
2022-09-23T10:50:20.157Z,4.80
2022-09-23T10:53:18.068Z,4.60
2022-09-23T10:56:16.922Z,4.53
2022-09-23T10:59:27.431Z,3.55
2022-09-23T11:02:35.154Z,3.35
2022-09-23T11:05:40.308Z,7.75
2022-09-23T11:09:06.281Z,4.40
2022-09-23T11:12:08.953Z,4.43
2022-09-23T11:15:19.610Z,5.37
2022-09-23T11:18:30.826Z,3.88
2022-09-23T11:21:38.506Z,4.20
2022-09-23T11:24:39.707Z,5.22
2022-09-23T11:27:39.790Z,8.18
2022-09-23T11:30:36.260Z,5.13
2022-09-23T11:33:37.014Z,6.78
2022-09-23T11:36:40.302Z,4.50
2022-09-23T11:39:34.439Z,4.80
2022-09-23T11:42:33.035Z,3.90
2022-09-23T11:45:27.016Z,5.65
2022-09-23T11:48:25.741Z,4.50
2022-09-23T11:51:17.950Z,5.30
2022-09-23T11:54:18.445Z,4.47
2022-09-23T11:57:18.377Z,4.40
2022-09-23T12:00:15.422Z,4.95
2022-09-23T12:03:10.883Z,4.70
2022-09-23T12:06:03.817Z,4.85
2022-09-23T12:09:01.562Z,8.73
2022-09-23T12:12:01.463Z,4.85
2022-09-23T12:15:05.236Z,5.75
2022-09-23T12:21:32.747Z,5.25
2022-09-23T12:24:52.212Z,4.97
2022-09-23T12:27:53.849Z,5.25
2022-09-23T12:30:44.974Z,4.07
2022-09-23T12:33:37.011Z,5.63
2022-09-23T12:36:35.665Z,4.60
2022-09-23T12:39:31.911Z,6.57
2022-09-23T12:42:28.898Z,5.10
2022-09-23T12:45:39.957Z,3.78
2022-09-23T12:48:44.376Z,4.63
2022-09-23T12:51:36.288Z,5.80
2022-09-23T12:54:26.163Z,4.47
2022-09-23T12:57:15.179Z,6.57
2022-09-23T13:00:28.078Z,4.82
2022-09-23T13:03:36.784Z,7.90
2022-09-23T13:06:41.187Z,5.63
2022-09-23T13:09:39.282Z,5.32
2022-09-23T13:12:45.380Z,4.35
2022-09-23T13:15:38.992Z,4.85
2022-09-23T13:18:58.772Z,5.50
2022-09-23T13:22:04.058Z,7.18
2022-09-23T13:24:57.699Z,6.68
2022-09-23T13:27:50.305Z,7.25
2022-09-23T13:30:38.137Z,5.55
2022-09-23T13:33:44.525Z,5.00
2022-09-23T13:36:35.027Z,7.38
2022-09-23T13:39:25.883Z,6.13
2022-09-23T13:42:24.143Z,5.07
2022-09-23T13:45:17.902Z,4.30
2022-09-23T13:48:07.851Z,7.70
2022-09-23T13:50:57.297Z,9.05
2022-09-23T13:53:44.284Z,8.02
2022-09-23T13:56:33.836Z,5.47
2022-09-23T13:59:26.962Z,6.47
2022-09-23T14:02:15.603Z,5.40
2022-09-23T14:05:12.688Z,5.35
2022-09-23T14:08:02.783Z,4.63
2022-09-23T14:10:49.853Z,10.30
2022-09-23T14:13:43.218Z,7.65
2022-09-23T14:16:31.355Z,10.32
2022-09-23T14:19:20.547Z,6.45
2022-09-23T14:22:23.499Z,6.75
2022-09-23T14:25:17.110Z,6.00
2022-09-23T14:28:04.579Z,5.28
2022-09-23T14:30:53.965Z,10.93
2022-09-23T14:33:43.016Z,6.97
2022-09-23T14:36:50.750Z,5.53
2022-09-23T14:39:36.575Z,6.00
2022-09-23T14:42:23.923Z,6.80
2022-09-23T14:45:15.527Z,7.07
2022-09-23T14:48:06.990Z,6.25
2022-09-23T14:50:59.191Z,8.80
2022-09-23T14:53:47.100Z,4.57
2022-09-23T14:56:43.452Z,5.35
2022-09-23T14:59:36.171Z,6.75
2022-09-23T15:02:32.963Z,4.90
2022-09-23T15:05:22.497Z,7.75
2022-09-23T15:08:14.726Z,4.28
2022-09-23T15:11:08.074Z,8.02
2022-09-23T15:13:58.125Z,5.82
2022-09-23T15:16:49.732Z,5.97
2022-09-23T15:19:38.933Z,8.57
2022-09-23T15:22:27.552Z,6.38
2022-09-23T15:25:20.583Z,8.85
2022-09-23T15:28:23.711Z,6.15
2022-09-23T15:31:13.128Z,5.13
2022-09-23T15:34:01.391Z,5.88
2022-09-23T15:36:49.678Z,10.85
2022-09-23T15:39:36.596Z,6.63
2022-09-23T15:42:23.500Z,4.57
2022-09-23T15:45:14.187Z,8.80
2022-09-23T15:48:06.145Z,6.47
2022-09-23T15:50:55.853Z,3.25
2022-09-23T15:53:42.912Z,6.68
2022-09-23T15:56:30.070Z,4.75
2022-09-23T15:59:16.887Z,4.88
2022-09-23T16:02:07.936Z,7.30
2022-09-23T16:04:58.618Z,5.40
2022-09-23T16:07:48.538Z,7.95
2022-09-23T16:10:36.129Z,6.22
2022-09-23T16:13:23.730Z,7.10
2022-09-23T16:16:14.485Z,4.25
2022-09-23T16:19:05.722Z,6.55
2022-09-23T16:21:53.790Z,6.25
2022-09-23T16:24:46.188Z,4.97
2022-09-23T16:27:35.703Z,4.25
2022-09-23T16:30:27.130Z,13.23
2022-09-23T16:33:24.380Z,8.32
2022-09-23T16:36:30.577Z,10.07
2022-09-23T16:39:23.086Z,9.07
2022-09-23T16:42:16.694Z,6.90
2022-09-23T16:45:08.829Z,9.05
2022-09-23T16:47:59.741Z,10.85
2022-09-23T16:50:52.386Z,7.47
2022-09-23T16:53:45.959Z,10.40
2022-09-23T16:56:33.872Z,8.68
2022-09-23T16:59:45.416Z,7.30
2022-09-23T17:02:52.122Z,7.95
2022-09-23T17:05:46.745Z,8.20
2022-09-23T17:08:43.246Z,10.18
2022-09-23T17:11:34.121Z,7.50
2022-09-23T17:14:25.695Z,12.48
2022-09-23T17:17:15.966Z,13.65
2022-09-23T17:20:07.132Z,10.15
2022-09-23T17:22:56.767Z,8.45
2022-09-23T17:25:51.747Z,9.73
2022-09-23T17:28:42.600Z,10.63
2022-09-23T17:31:37.522Z,10.45
2022-09-23T17:34:25.265Z,11.35
2022-09-23T17:37:14.944Z,14.13
2022-09-23T17:40:07.330Z,8.82
2022-09-23T17:42:54.783Z,8.18
2022-09-23T17:45:44.741Z,6.18
2022-09-23T17:48:43.370Z,6.65
2022-09-23T17:51:34.710Z,9.32
2022-09-23T17:54:23.563Z,9.38
2022-09-23T17:57:12.599Z,11.30
2022-09-23T18:00:06.981Z,9.75
2022-09-23T18:03:03.947Z,10.32
2022-09-23T18:06:08.341Z,14.45
2022-09-23T18:09:04.616Z,13.73
2022-09-23T18:12:00.962Z,12.15
2022-09-23T18:14:50.422Z,9.55
2022-09-23T18:17:38.083Z,9.48
2022-09-23T18:20:25.864Z,11.35
2022-09-23T18:23:14.366Z,13.10
2022-09-23T18:26:02.415Z,13.73
2022-09-23T18:28:53.025Z,13.10
2022-09-23T18:31:46.049Z,15.82
2022-09-23T18:34:35.338Z,15.30
2022-09-23T18:37:35.899Z,13.18
2022-09-23T18:40:28.631Z,14.52
2022-09-23T18:43:19.899Z,11.93
2022-09-23T18:46:15.336Z,12.52
2022-09-23T18:49:25.721Z,12.63
2022-09-23T18:52:16.317Z,12.23
2022-09-23T18:55:04.022Z,14.05
2022-09-23T18:58:02.501Z,12.20
2022-09-23T19:00:54.235Z,11.90
2022-09-23T19:03:44.174Z,12.10
2022-09-23T19:06:37.379Z,12.55
2022-09-23T19:09:31.022Z,10.52
2022-09-23T19:12:22.466Z,13.50
2022-09-23T19:15:14.683Z,14.13
2022-09-23T19:18:05.337Z,15.18
2022-09-23T19:20:58.318Z,11.55
2022-09-23T19:23:49.190Z,11.35
2022-09-23T19:26:39.418Z,10.98
2022-09-23T19:29:29.677Z,12.50
2022-09-23T19:32:27.558Z,11.25
2022-09-23T19:35:18.906Z,12.48
2022-09-23T19:38:13.857Z,14.50
2022-09-23T19:41:06.612Z,15.50
2022-09-23T19:43:55.301Z,11.98
2022-09-23T19:46:46.579Z,10.98
2022-09-23T19:49:38.463Z,14.43
2022-09-23T19:52:30.683Z,11.73
2022-09-23T19:55:21.293Z,11.23
2022-09-23T19:58:14.585Z,12.18
2022-09-23T20:01:02.111Z,13.23
2022-09-23T20:03:53.420Z,11.00
2022-09-23T20:06:46.526Z,13.13
2022-09-23T20:09:39.837Z,14.30
2022-09-23T20:12:27.115Z,14.70
2022-09-23T20:15:19.020Z,14.40
2022-09-23T20:18:06.830Z,13.15
2022-09-23T20:20:56.138Z,13.00
2022-09-23T20:23:46.148Z,11.45
2022-09-23T20:26:47.951Z,11.93
2022-09-23T20:29:35.258Z,13.45
2022-09-23T20:32:24.762Z,16.50
2022-09-23T20:35:12.388Z,18.40
2022-09-23T20:38:03.792Z,16.30
2022-09-23T20:41:02.841Z,12.60
2022-09-23T20:44:01.781Z,14.48
2022-09-23T20:46:52.595Z,13.43
2022-09-23T20:49:44.144Z,13.50
2022-09-23T20:52:35.784Z,11.98
2022-09-23T20:55:24.287Z,11.65
2022-09-23T20:58:13.759Z,14.93
2022-09-23T21:01:08.334Z,17.02
2022-09-23T21:03:57.090Z,17.25
2022-09-23T21:06:58.119Z,15.35
2022-09-23T21:09:46.659Z,16.20
2022-09-23T21:12:33.976Z,11.70
2022-09-23T21:15:27.023Z,11.80
2022-09-23T21:18:18.106Z,12.90
2022-09-23T21:24:23.704Z,14.63
2022-09-23T21:27:12.002Z,12.65
2022-09-23T21:30:10.023Z,12.38
2022-09-23T21:33:03.511Z,11.35
2022-09-23T21:35:59.173Z,12.30
2022-09-23T21:38:47.583Z,11.40
2022-09-23T21:41:37.463Z,14.60
2022-09-23T21:44:39.635Z,16.35
2022-09-23T21:47:42.516Z,12.75
2022-09-23T21:50:32.528Z,11.50
2022-09-23T21:53:20.663Z,12.10
2022-09-23T21:56:10.796Z,11.30
2022-09-23T21:59:03.009Z,12.27
2022-09-23T22:01:57.856Z,11.00
2022-09-23T22:04:51.779Z,11.35
2022-09-23T22:07:50.074Z,14.23
2022-09-23T22:10:44.277Z,12.30
2022-09-23T22:13:42.920Z,10.20
2022-09-23T22:16:31.979Z,10.43
2022-09-23T22:19:22.989Z,13.38
2022-09-23T22:25:13.548Z,11.48
2022-09-23T22:28:19.197Z,11.88
2022-09-23T22:31:32.130Z,17.00
2022-09-23T22:34:47.449Z,10.45
2022-09-23T22:37:29.682Z,11.93
2022-09-23T22:40:23.066Z,11.88
2022-09-23T22:43:12.245Z,10.40
2022-09-23T22:46:02.770Z,9.45
2022-09-23T22:48:53.815Z,13.32
2022-09-23T22:51:47.559Z,13.70
2022-09-23T22:54:41.746Z,13.00
2022-09-23T22:57:41.980Z,9.95
2022-09-23T23:00:30.997Z,11.38
2022-09-23T23:03:21.606Z,11.90
2022-09-23T23:06:15.600Z,11.57
2022-09-23T23:09:09.175Z,13.63
2022-09-23T23:11:59.601Z,11.45
2022-09-23T23:15:04.715Z,15.68
2022-09-23T23:18:00.128Z,11.93
2022-09-23T23:20:47.969Z,9.10
2022-09-23T23:23:39.042Z,10.60
2022-09-23T23:26:29.546Z,10.63
2022-09-23T23:29:24.926Z,11.25
2022-09-23T23:32:14.023Z,12.00
2022-09-23T23:35:01.559Z,10.60
2022-09-23T23:37:54.365Z,12.18
2022-09-23T23:40:44.913Z,9.93
2022-09-23T23:46:26.945Z,11.65
2022-09-23T23:49:17.762Z,10.38
2022-09-23T23:52:11.357Z,10.23
2022-09-23T23:55:06.145Z,10.48
2022-09-23T23:57:54.356Z,15.45
